YUKO2: Yukon 2NNE(N Canadian R)

Data processed at Fri Mar 09 2018 23:42


All information presented herein is the property of the government of the United States of America and may be revised or deleted at any time without prior notice.
Dissemination of this information without the expressed written consent of the Public Affairs Office, Tulsa District U.S. Army Corps of Engineers is strictly prohibited.
These data are gathered electronically and, as presented, have not undergone any form of quality control. These data are not guaranteed to be valid or correct.
Go to home page.
Go to station list.

Upstream stations:

Downstream station:
Previous Day
Next Day
Current Day
    
SHEF ID:       YUKO2     North Canadian River near Yukon,
STATION TYPE:  

                STAGE  STAGE(2)  RIV-FLOW  WTR-TEMP   CONDUCT  BAT-LOAD
                   ft        ft       cfs         F   umho/cm      volt
              Ccp-Rev   Ccp-Rev   Ccp-Rev   Ccp-Rev   Ccp-Rev   Ccp-Rev
(US/Central)
03/07 00:00      1.57      1.63        68     49.69      1456     12.83
03/07 01:00      1.58      1.63        69     49.03      1457     12.83
03/07 02:00      1.58      1.63        69     48.42      1464     12.77
03/07 03:00      1.57      1.63        68     47.73      1470     12.77
03/07 04:00      1.57      1.63        68     46.96      1475     12.71
03/07 05:00      1.56      1.63        67     46.18      1481     12.71
03/07 06:00      1.56      1.63        67     45.57      1484     12.71
03/07 07:00      1.55      1.63        66     45.00      1487     12.65
03/07 08:00      1.53      1.63        64     44.60      1489     12.71
03/07 09:00      1.51      1.63        62     44.80      1483     14.12
03/07 10:00      1.51      1.63        62     45.86      1476     14.59
03/07 11:00      1.52      1.63        63     47.89      1464     14.71
03/07 12:00      1.52      1.63        63     50.25      1457     14.59
03/07 13:00      1.52      1.63        63     52.77      1452     14.53
03/07 14:00      1.52      1.63        63     55.17      1442     14.00
03/07 15:00      1.52      1.63        63     56.89      1425     14.41
03/07 16:00      1.52      1.63        63     57.78      1426     14.35
03/07 17:00      1.51      1.63        62     57.54      1424     14.35
03/07 18:00      1.51      1.63        62     56.25      1419     14.24
03/07 19:00      1.53      1.63        64     55.04      1418     13.53
03/07 20:00      1.54      1.63        65     53.83      1440     13.12
03/07 21:00      1.55      1.63        66     52.79      1442     12.95
03/07 22:00      1.56      1.63        67     51.84      1445     12.89
03/07 23:00      1.57      1.63        68     51.01      1449     12.83